createdAt,value
2022-12-09T00:02:11.528Z,82.31
2022-12-09T00:04:49.070Z,82.45
2022-12-09T00:07:25.280Z,82.39
2022-12-09T00:10:01.479Z,82.44
2022-12-09T00:12:37.947Z,82.37
2022-12-09T00:15:15.518Z,82.37
2022-12-09T00:17:51.886Z,82.46
2022-12-09T00:20:28.115Z,82.44
2022-12-09T00:23:04.572Z,82.37
2022-12-09T00:25:40.612Z,82.59
2022-12-09T00:28:16.721Z,82.57
2022-12-09T00:30:52.865Z,82.49
2022-12-09T00:33:30.920Z,82.46
2022-12-09T00:36:15.670Z,82.38
2022-12-09T00:38:52.900Z,82.42
2022-12-09T00:41:30.302Z,82.24
2022-12-09T00:44:07.309Z,82.13
2022-12-09T00:46:43.454Z,82.14
2022-12-09T00:49:19.605Z,81.86
2022-12-09T00:51:56.127Z,81.74
2022-12-09T00:54:32.203Z,81.57
2022-12-09T00:57:08.845Z,81.57
2022-12-09T00:59:45.064Z,81.51
2022-12-09T01:02:21.232Z,81.67
2022-12-09T01:04:57.827Z,81.83
2022-12-09T01:07:33.963Z,81.98
2022-12-09T01:10:12.447Z,81.77
2022-12-09T01:12:48.529Z,81.56
2022-12-09T01:15:24.954Z,81.84
2022-12-09T01:18:01.355Z,82.10
2022-12-09T01:20:38.320Z,82.30
2022-12-09T01:23:14.397Z,82.04
2022-12-09T01:25:50.509Z,81.78
2022-12-09T01:28:26.564Z,81.77
2022-12-09T01:31:10.268Z,81.80
2022-12-09T01:33:46.916Z,81.80
2022-12-09T01:36:31.120Z,81.91
2022-12-09T01:39:07.624Z,81.96
2022-12-09T01:41:43.691Z,82.02
2022-12-09T01:44:25.390Z,82.13
2022-12-09T01:47:05.506Z,82.16
2022-12-09T01:49:48.319Z,82.16
2022-12-09T01:52:25.692Z,82.30
2022-12-09T01:55:02.929Z,82.31
2022-12-09T01:57:39.719Z,82.42
2022-12-09T02:00:19.257Z,82.41
2022-12-09T02:02:57.609Z,82.40
2022-12-09T02:05:35.508Z,82.55
2022-12-09T02:08:20.246Z,82.57
2022-12-09T02:11:15.486Z,82.53
2022-12-09T02:14:04.719Z,82.71
2022-12-09T02:16:57.468Z,82.79
2022-12-09T02:20:01.858Z,82.64
2022-12-09T02:22:45.895Z,82.65
2022-12-09T02:25:37.596Z,82.66
2022-12-09T02:28:58.581Z,82.76
2022-12-09T02:32:14.981Z,82.87
2022-12-09T02:35:02.628Z,83.00
2022-12-09T02:37:49.967Z,83.16
2022-12-09T02:40:34.040Z,83.21
2022-12-09T02:43:13.424Z,83.22
2022-12-09T02:45:53.614Z,83.22
2022-12-09T02:48:38.771Z,83.38
2022-12-09T02:51:21.956Z,83.32
2022-12-09T02:54:08.287Z,83.30
2022-12-09T02:56:51.791Z,83.25
2022-12-09T02:59:28.381Z,83.26
2022-12-09T03:02:21.814Z,83.14
2022-12-09T03:05:16.894Z,83.12
2022-12-09T03:08:09.821Z,83.17
2022-12-09T03:10:59.285Z,83.21
2022-12-09T03:13:52.478Z,83.16
2022-12-09T03:16:40.995Z,83.27
2022-12-09T03:19:27.268Z,83.43
2022-12-09T03:22:07.907Z,83.46
2022-12-09T03:24:50.355Z,83.33
2022-12-09T03:27:35.418Z,83.32
2022-12-09T03:30:17.498Z,83.40
2022-12-09T03:32:58.665Z,83.48
2022-12-09T03:35:42.420Z,83.52
2022-12-09T03:38:25.531Z,83.74
2022-12-09T03:41:16.654Z,83.86
2022-12-09T03:44:00.561Z,83.92
2022-12-09T03:46:37.191Z,83.88
2022-12-09T03:49:14.213Z,83.90
2022-12-09T03:51:56.679Z,83.93
2022-12-09T03:54:41.988Z,83.90
2022-12-09T03:57:23.874Z,83.89
2022-12-09T04:00:05.762Z,83.97
2022-12-09T04:02:49.706Z,84.08
2022-12-09T04:05:26.045Z,84.21
2022-12-09T04:08:03.076Z,84.28
2022-12-09T04:10:39.579Z,84.21
2022-12-09T04:13:16.138Z,84.25
2022-12-09T04:15:52.451Z,84.30
2022-12-09T04:18:28.853Z,84.24
2022-12-09T04:21:09.197Z,84.43
2022-12-09T04:23:46.234Z,84.41
2022-12-09T04:26:25.808Z,84.32
2022-12-09T04:29:02.475Z,84.44
2022-12-09T04:31:38.887Z,84.46
2022-12-09T04:34:15.478Z,84.41
2022-12-09T04:36:52.355Z,84.46
2022-12-09T04:39:29.187Z,84.48
2022-12-09T04:42:05.701Z,84.47
2022-12-09T04:44:41.941Z,84.33
2022-12-09T04:47:18.144Z,84.28
2022-12-09T04:49:54.900Z,84.19
2022-12-09T04:52:31.275Z,84.22
2022-12-09T04:55:09.953Z,84.20
2022-12-09T04:57:46.727Z,84.26
2022-12-09T05:00:25.840Z,84.38
2022-12-09T05:03:02.424Z,84.50
2022-12-09T05:05:42.559Z,84.50
2022-12-09T05:08:19.793Z,84.50
2022-12-09T05:10:56.219Z,84.39
2022-12-09T05:13:33.750Z,84.40
2022-12-09T05:16:16.984Z,84.33
2022-12-09T05:18:54.231Z,84.35
2022-12-09T05:21:31.374Z,84.48
2022-12-09T05:24:10.700Z,84.50
2022-12-09T05:26:47.488Z,84.52
2022-12-09T05:29:23.908Z,84.41
2022-12-09T05:32:00.258Z,84.42
2022-12-09T05:34:37.424Z,84.58
2022-12-09T05:37:18.277Z,84.73
2022-12-09T05:39:54.637Z,84.79
2022-12-09T05:42:35.159Z,84.71
2022-12-09T05:45:16.175Z,84.64
2022-12-09T05:47:52.775Z,84.53
2022-12-09T05:50:29.522Z,84.44
2022-12-09T05:53:07.894Z,84.47
2022-12-09T05:55:47.399Z,84.57
2022-12-09T05:58:25.963Z,84.61
2022-12-09T06:01:09.364Z,84.60
2022-12-09T06:03:48.135Z,84.68
2022-12-09T06:06:28.300Z,84.67
2022-12-09T06:09:08.621Z,84.78
2022-12-09T06:11:45.520Z,84.81
2022-12-09T06:14:22.057Z,84.76
2022-12-09T06:16:58.224Z,84.70
2022-12-09T06:19:35.312Z,84.79
2022-12-09T06:22:12.164Z,84.85
2022-12-09T06:24:51.159Z,85.00
2022-12-09T06:27:32.577Z,85.05
2022-12-09T06:30:11.363Z,85.18
2022-12-09T06:32:48.242Z,85.29
2022-12-09T06:35:24.759Z,85.35
2022-12-09T06:38:02.361Z,85.30
2022-12-09T06:40:43.710Z,85.44
2022-12-09T06:43:20.147Z,85.55
2022-12-09T06:45:56.495Z,85.64
2022-12-09T06:48:33.095Z,85.60
2022-12-09T06:51:10.536Z,85.63
2022-12-09T06:53:47.410Z,85.71
2022-12-09T06:56:24.669Z,85.80
2022-12-09T06:59:01.312Z,85.80
2022-12-09T07:01:40.248Z,85.80
2022-12-09T07:04:18.773Z,85.80
2022-12-09T07:06:55.217Z,85.84
2022-12-09T07:09:31.831Z,85.99
2022-12-09T07:12:10.430Z,86.12
2022-12-09T07:14:46.861Z,86.25
2022-12-09T07:17:24.114Z,86.28
2022-12-09T07:20:06.761Z,86.30
2022-12-09T07:22:43.715Z,86.34
2022-12-09T07:25:19.975Z,86.37
2022-12-09T07:27:56.436Z,86.46
2022-12-09T07:30:33.264Z,86.52
2022-12-09T07:33:10.018Z,86.60
2022-12-09T07:35:48.493Z,86.61
2022-12-09T07:38:26.333Z,86.77
2022-12-09T07:41:10.164Z,86.95
2022-12-09T07:43:47.496Z,86.97
2022-12-09T07:46:27.601Z,87.22
2022-12-09T07:49:07.399Z,87.16
2022-12-09T07:51:44.626Z,87.16
2022-12-09T07:54:23.866Z,87.01
2022-12-09T07:57:00.479Z,86.88
2022-12-09T07:59:37.268Z,86.57
2022-12-09T08:02:14.848Z,86.39
2022-12-09T08:04:51.383Z,86.19
2022-12-09T08:07:28.326Z,86.05
2022-12-09T08:10:05.448Z,85.79
2022-12-09T08:12:42.574Z,85.63
2022-12-09T08:15:20.809Z,85.47
2022-12-09T08:17:57.342Z,85.35
2022-12-09T08:20:34.357Z,84.99
2022-12-09T08:23:11.013Z,84.86
2022-12-09T08:25:47.354Z,84.80
2022-12-09T08:28:24.666Z,84.36
2022-12-09T08:31:07.241Z,83.94
2022-12-09T08:33:45.052Z,83.45
2022-12-09T08:36:26.402Z,83.40
2022-12-09T08:39:05.358Z,82.75
2022-12-09T08:41:44.039Z,82.35
2022-12-09T08:44:23.459Z,82.25
2022-12-09T08:47:00.172Z,81.92
2022-12-09T08:49:37.456Z,81.66
2022-12-09T08:52:14.233Z,81.58
2022-12-09T08:54:51.151Z,81.47
2022-12-09T08:57:29.614Z,81.29
2022-12-09T09:00:08.289Z,80.59
2022-12-09T09:02:45.657Z,79.87
2022-12-09T09:05:22.894Z,79.87
2022-12-09T09:08:00.179Z,79.75
2022-12-09T09:10:40.771Z,79.87
2022-12-09T09:13:17.654Z,79.49
2022-12-09T09:15:54.161Z,79.39
2022-12-09T09:18:30.952Z,79.25
2022-12-09T09:21:09.720Z,79.22
2022-12-09T09:23:47.417Z,79.20
2022-12-09T09:26:29.545Z,79.39
2022-12-09T09:29:07.299Z,79.35
2022-12-09T09:31:44.241Z,79.10
2022-12-09T09:34:21.709Z,79.01
2022-12-09T09:36:59.302Z,79.01
2022-12-09T09:39:36.150Z,78.79
2022-12-09T09:42:24.816Z,79.13
2022-12-09T09:45:04.717Z,78.90
2022-12-09T09:47:46.476Z,78.65
2022-12-09T09:50:38.005Z,78.23
2022-12-09T09:53:26.969Z,78.07
2022-12-09T09:56:09.018Z,77.97
2022-12-09T09:58:54.905Z,78.09
2022-12-09T10:01:37.750Z,77.64
2022-12-09T10:04:23.683Z,77.33
2022-12-09T10:07:12.685Z,77.24
2022-12-09T10:10:04.090Z,76.97
2022-12-09T10:13:08.088Z,76.50
2022-12-09T10:16:06.285Z,75.58
2022-12-09T10:19:04.053Z,75.51
2022-12-09T10:21:49.584Z,74.78
2022-12-09T10:24:39.272Z,74.49
2022-12-09T10:27:32.273Z,73.74
2022-12-09T10:30:15.696Z,72.77
2022-12-09T10:32:52.713Z,73.10
2022-12-09T10:35:33.013Z,73.39
2022-12-09T10:38:16.256Z,73.42
2022-12-09T10:41:07.273Z,72.46
2022-12-09T10:43:44.466Z,72.11
2022-12-09T10:46:26.423Z,71.75
2022-12-09T10:49:05.250Z,71.46
2022-12-09T10:51:51.711Z,71.24
2022-12-09T10:54:38.050Z,70.88
2022-12-09T10:57:31.322Z,70.37
2022-12-09T11:00:27.109Z,70.32
2022-12-09T11:03:06.191Z,71.04
2022-12-09T11:05:43.889Z,71.05
2022-12-09T11:08:27.608Z,70.68
2022-12-09T11:11:05.151Z,70.77
2022-12-09T11:13:46.213Z,70.81
2022-12-09T11:16:31.279Z,70.95
2022-12-09T11:19:07.467Z,71.26
2022-12-09T11:21:43.724Z,70.84
2022-12-09T11:24:29.277Z,70.53
2022-12-09T11:27:19.320Z,70.68
2022-12-09T11:30:18.116Z,70.75
2022-12-09T11:33:28.164Z,70.28
2022-12-09T11:36:11.605Z,70.23
2022-12-09T11:38:49.737Z,70.29
2022-12-09T11:41:46.766Z,70.22
2022-12-09T11:44:34.952Z,69.97
2022-12-09T11:47:22.997Z,70.62
2022-12-09T11:50:08.462Z,70.85
2022-12-09T11:52:45.872Z,70.94
2022-12-09T11:55:27.689Z,70.85
2022-12-09T11:58:07.928Z,71.02
2022-12-09T12:00:57.138Z,71.25
2022-12-09T12:03:53.728Z,71.45
2022-12-09T12:06:40.026Z,70.81
2022-12-09T12:09:25.191Z,70.60
2022-12-09T12:12:13.692Z,70.37
2022-12-09T12:14:49.675Z,70.51
2022-12-09T12:17:43.183Z,70.15
2022-12-09T12:20:19.903Z,70.34
2022-12-09T12:23:28.058Z,70.59
2022-12-09T12:26:17.289Z,70.84
2022-12-09T12:29:30.376Z,70.92
2022-12-09T12:32:30.936Z,70.84
2022-12-09T12:35:49.456Z,71.30
2022-12-09T12:39:04.023Z,71.53
2022-12-09T12:41:52.872Z,71.51
2022-12-09T12:45:15.748Z,71.60
2022-12-09T12:48:03.095Z,71.63
2022-12-09T12:51:10.632Z,71.82
2022-12-09T12:53:58.532Z,71.77
2022-12-09T12:56:44.831Z,72.00
2022-12-09T12:59:34.132Z,71.94
2022-12-09T13:02:44.921Z,71.67
2022-12-09T13:05:28.230Z,71.65
2022-12-09T13:08:12.461Z,71.76
2022-12-09T13:10:54.772Z,71.97
2022-12-09T13:13:39.890Z,72.17
2022-12-09T13:16:27.764Z,72.20
2022-12-09T13:19:17.695Z,72.11
2022-12-09T13:21:54.341Z,72.02
2022-12-09T13:24:43.434Z,72.38
2022-12-09T13:27:27.954Z,72.36
2022-12-09T13:30:12.329Z,72.50
2022-12-09T13:33:26.492Z,72.66
2022-12-09T13:36:12.336Z,72.79
2022-12-09T13:38:48.759Z,72.99
2022-12-09T13:42:06.058Z,73.13
2022-12-09T13:44:46.376Z,73.36
2022-12-09T13:48:54.221Z,73.76
2022-12-09T13:51:48.250Z,73.81
2022-12-09T13:54:29.274Z,74.04
2022-12-09T13:57:26.517Z,74.25
2022-12-09T14:00:08.615Z,74.46
2022-12-09T14:02:57.638Z,74.59
2022-12-09T14:05:38.977Z,74.66
2022-12-09T14:08:28.942Z,74.95
2022-12-09T14:11:50.583Z,75.10
2022-12-09T14:15:01.774Z,75.20
2022-12-09T14:18:27.559Z,75.23
2022-12-09T14:21:33.631Z,75.51
2022-12-09T14:24:39.746Z,75.74
2022-12-09T14:27:23.205Z,75.48
2022-12-09T14:30:02.714Z,75.27
2022-12-09T14:32:55.552Z,75.04
2022-12-09T14:35:44.406Z,75.05
2022-12-09T14:38:33.210Z,75.31
2022-12-09T14:41:27.247Z,75.39
2022-12-09T14:44:24.978Z,75.35
2022-12-09T14:47:23.959Z,75.40
2022-12-09T14:50:10.378Z,75.53
2022-12-09T14:52:58.673Z,75.60
2022-12-09T14:55:44.740Z,75.92
2022-12-09T14:58:26.272Z,76.03
2022-12-09T15:01:08.872Z,76.24
2022-12-09T15:03:54.036Z,76.46
2022-12-09T15:06:30.288Z,76.62
2022-12-09T15:09:06.437Z,76.91
2022-12-09T15:11:43.855Z,77.12
2022-12-09T15:14:29.024Z,77.48
2022-12-09T15:17:05.430Z,77.79
2022-12-09T15:22:38.282Z,78.35
2022-12-09T15:25:25.349Z,78.78
2022-12-09T15:28:25.884Z,79.18
2022-12-09T15:31:06.241Z,79.53
2022-12-09T15:33:50.555Z,79.93
2022-12-09T15:36:33.977Z,80.30
2022-12-09T15:39:19.821Z,80.61
2022-12-09T15:42:08.167Z,80.84
2022-12-09T15:44:54.507Z,81.18
2022-12-09T15:47:39.002Z,81.53
2022-12-09T15:50:22.637Z,81.84
2022-12-09T15:53:09.280Z,82.24
2022-12-09T15:55:51.813Z,82.48
2022-12-09T15:58:39.507Z,82.79
2022-12-09T16:01:25.088Z,83.01
2022-12-09T16:04:04.912Z,83.41
2022-12-09T16:06:41.914Z,83.56
2022-12-09T16:09:24.187Z,83.87
2022-12-09T16:12:00.606Z,83.97
2022-12-09T16:14:48.320Z,84.14
2022-12-09T16:17:28.688Z,84.49
2022-12-09T16:20:32.580Z,84.60
2022-12-09T16:23:20.119Z,84.70
2022-12-09T16:26:06.658Z,84.94
2022-12-09T16:28:43.708Z,85.09
2022-12-09T16:31:23.121Z,85.28
2022-12-09T16:33:59.793Z,85.32
2022-12-09T16:36:36.547Z,85.39
2022-12-09T16:39:43.050Z,85.60
2022-12-09T16:42:37.825Z,85.94
2022-12-09T16:45:36.411Z,86.05
2022-12-09T16:48:15.740Z,86.11
2022-12-09T16:50:54.822Z,86.37
2022-12-09T16:53:36.183Z,86.57
2022-12-09T16:56:24.829Z,86.58
2022-12-09T16:59:01.635Z,86.83
2022-12-09T17:01:44.186Z,86.77
2022-12-09T17:04:25.971Z,86.87
2022-12-09T17:07:01.943Z,86.95
2022-12-09T17:09:38.091Z,86.94
2022-12-09T17:12:14.334Z,87.05
2022-12-09T17:14:51.511Z,87.09
2022-12-09T17:17:27.593Z,87.23
2022-12-09T17:20:03.551Z,87.30
2022-12-09T17:22:40.326Z,87.30
2022-12-09T17:25:16.298Z,87.33
2022-12-09T17:27:55.870Z,87.33
2022-12-09T17:30:32.307Z,87.37
2022-12-09T17:33:08.249Z,87.54
2022-12-09T17:35:45.100Z,87.45
2022-12-09T17:38:21.487Z,87.63
2022-12-09T17:40:57.752Z,87.68
2022-12-09T17:43:34.153Z,87.74
2022-12-09T17:46:11.479Z,87.79
2022-12-09T17:48:47.729Z,87.98
2022-12-09T17:51:27.774Z,87.93
2022-12-09T17:54:07.530Z,88.09
2022-12-09T17:56:43.525Z,88.04
2022-12-09T17:59:21.397Z,88.01
2022-12-09T18:01:57.529Z,88.15
2022-12-09T18:04:33.601Z,88.18
2022-12-09T18:07:09.498Z,88.31
2022-12-09T18:09:52.823Z,88.34
2022-12-09T18:12:30.696Z,88.43
2022-12-09T18:15:07.432Z,88.42
2022-12-09T18:17:43.511Z,88.49
2022-12-09T18:20:19.516Z,88.63
2022-12-09T18:22:55.879Z,88.64
2022-12-09T18:25:32.245Z,88.97
2022-12-09T18:28:08.714Z,89.10
2022-12-09T18:30:44.710Z,89.08
2022-12-09T18:33:20.640Z,89.12
2022-12-09T18:35:56.889Z,89.16
2022-12-09T18:38:33.056Z,89.32
2022-12-09T18:41:13.324Z,89.58
2022-12-09T18:43:53.683Z,89.38
2022-12-09T18:46:34.027Z,89.25
2022-12-09T18:49:15.174Z,89.43
2022-12-09T18:51:55.862Z,89.29
2022-12-09T18:54:33.486Z,89.32
2022-12-09T18:57:09.427Z,89.33
2022-12-09T18:59:45.950Z,89.44
2022-12-09T19:02:22.124Z,89.57
2022-12-09T19:04:58.501Z,89.63
2022-12-09T19:07:36.717Z,89.63
2022-12-09T19:10:13.325Z,89.65
2022-12-09T19:12:56.519Z,89.81
2022-12-09T19:15:33.218Z,89.92
2022-12-09T19:18:11.693Z,89.92
2022-12-09T19:20:48.304Z,89.79
2022-12-09T19:23:26.819Z,89.86
2022-12-09T19:26:03.037Z,89.75
2022-12-09T19:28:39.223Z,89.69
2022-12-09T19:31:27.942Z,89.79
2022-12-09T19:34:07.577Z,89.91
2022-12-09T19:36:44.779Z,89.82
2022-12-09T19:39:24.572Z,89.78
2022-12-09T19:42:02.667Z,89.66
2022-12-09T19:45:00.265Z,89.72
2022-12-09T19:47:34.898Z,89.73
2022-12-09T19:50:13.618Z,89.65
2022-12-09T19:52:49.636Z,89.76
2022-12-09T19:55:29.168Z,89.69
2022-12-09T19:58:06.106Z,89.68
2022-12-09T20:00:42.573Z,89.77
2022-12-09T20:03:19.756Z,89.66
2022-12-09T20:05:58.188Z,89.66
2022-12-09T20:08:34.637Z,89.62
2022-12-09T20:11:16.668Z,89.56
2022-12-09T20:13:53.921Z,89.58
2022-12-09T20:16:30.511Z,89.58
2022-12-09T20:19:07.677Z,89.67
2022-12-09T20:21:44.045Z,89.64
2022-12-09T20:24:20.102Z,89.57
2022-12-09T20:26:56.349Z,89.59
2022-12-09T20:29:37.681Z,89.50
2022-12-09T20:32:14.833Z,89.46
2022-12-09T20:34:51.520Z,89.50
2022-12-09T20:37:28.003Z,89.55
2022-12-09T20:40:05.126Z,89.55
2022-12-09T20:42:41.829Z,89.56
2022-12-09T20:45:18.560Z,89.47
2022-12-09T20:47:54.891Z,89.48
2022-12-09T20:50:38.234Z,89.49
2022-12-09T20:53:16.314Z,89.51
2022-12-09T20:56:01.745Z,89.56
2022-12-09T20:58:39.261Z,89.61
2022-12-09T21:01:21.554Z,89.50
2022-12-09T21:04:00.485Z,89.50
2022-12-09T21:06:41.884Z,89.54
2022-12-09T21:09:22.944Z,89.52
2022-12-09T21:11:59.309Z,89.58
2022-12-09T21:14:37.216Z,89.55
2022-12-09T21:17:13.579Z,89.50
2022-12-09T21:19:49.940Z,89.59
2022-12-09T21:22:28.461Z,89.57
2022-12-09T21:25:06.499Z,89.58
2022-12-09T21:27:42.815Z,89.60
2022-12-09T21:30:23.127Z,89.62
2022-12-09T21:32:59.391Z,89.62
2022-12-09T21:35:36.592Z,89.75
2022-12-09T21:38:12.632Z,89.70
2022-12-09T21:40:48.945Z,89.72
2022-12-09T21:43:29.177Z,89.72
2022-12-09T21:46:10.092Z,89.72
2022-12-09T21:48:52.330Z,89.83
2022-12-09T21:51:30.609Z,89.72
2022-12-09T21:54:08.061Z,89.71
2022-12-09T21:56:51.249Z,89.76
2022-12-09T21:59:27.667Z,89.79
2022-12-09T22:02:04.964Z,89.72
2022-12-09T22:04:41.118Z,89.66
2022-12-09T22:07:17.308Z,89.61
2022-12-09T22:09:54.454Z,89.58
2022-12-09T22:12:31.590Z,89.55
2022-12-09T22:15:10.767Z,89.57
2022-12-09T22:17:46.736Z,89.53
2022-12-09T22:20:54.603Z,89.55
2022-12-09T22:23:19.246Z,89.50
2022-12-09T22:25:55.389Z,89.50
2022-12-09T22:28:33.115Z,89.48
2022-12-09T22:31:18.550Z,89.51
2022-12-09T22:34:00.158Z,89.50
2022-12-09T22:36:37.250Z,89.40
2022-12-09T22:39:17.519Z,89.41
2022-12-09T22:41:54.079Z,89.40
2022-12-09T22:44:30.231Z,89.41
2022-12-09T22:47:06.112Z,89.44
2022-12-09T22:49:42.467Z,89.43
2022-12-09T22:52:18.481Z,89.43
2022-12-09T22:54:54.751Z,89.43
2022-12-09T22:57:31.495Z,89.40
2022-12-09T23:00:14.368Z,89.37
2022-12-09T23:02:51.453Z,89.33
2022-12-09T23:05:34.565Z,89.30
2022-12-09T23:08:12.590Z,89.30
2022-12-09T23:10:48.809Z,89.27
2022-12-09T23:13:24.788Z,89.26
2022-12-09T23:16:04.816Z,89.25
2022-12-09T23:18:41.642Z,89.19
2022-12-09T23:21:21.904Z,89.15
2022-12-09T23:24:01.608Z,89.13
2022-12-09T23:26:41.624Z,89.13
2022-12-09T23:29:20.349Z,89.12
2022-12-09T23:31:56.605Z,89.13
2022-12-09T23:34:32.676Z,89.14
2022-12-09T23:37:08.835Z,89.12
2022-12-09T23:39:45.162Z,89.09
2022-12-09T23:42:22.190Z,89.08
2022-12-09T23:44:59.078Z,89.00
2022-12-09T23:47:35.220Z,89.01
2022-12-09T23:50:12.873Z,89.00
2022-12-09T23:52:48.803Z,88.98
2022-12-09T23:55:24.935Z,89.01
2022-12-09T23:58:00.819Z,89.00
